createdAt,value
2019-01-20T00:00:18.792Z,69.29
2019-01-20T00:01:07.408Z,68.82
2019-01-20T00:03:33.382Z,69.48
2019-01-20T00:04:21.947Z,69.96
2019-01-20T00:19:18.665Z,70.97
2019-01-20T00:20:08.587Z,71.15
2019-01-20T00:23:12.369Z,71.34
2019-01-20T00:24:01.779Z,70.2
2019-01-20T00:27:30.843Z,69.64
2019-01-20T00:28:19.565Z,68.79
2019-01-20T00:29:08.513Z,69.64
2019-01-20T00:29:56.775Z,70.01
2019-01-20T00:30:45.164Z,69.92
2019-01-20T00:31:34.530Z,70.15
2019-01-20T00:32:22.917Z,70.34
2019-01-20T00:33:11.267Z,70.05
2019-01-20T00:34:00.092Z,69.1
2019-01-20T00:34:48.528Z,69.1
2019-01-20T00:35:36.997Z,69.01
2019-01-20T00:36:25.897Z,69.01
2019-01-20T00:37:14.164Z,68.82
2019-01-20T00:38:02.717Z,68.44
2019-01-20T00:40:24.743Z,70.01
2019-01-20T00:42:29.134Z,69.1
2019-01-20T00:43:19.256Z,69.17
2019-01-20T00:44:08.113Z,69.73
2019-01-20T00:47:11.924Z,69.29
2019-01-20T00:48:00.275Z,69.07
2019-01-20T00:48:48.899Z,69.45
2019-01-20T00:49:40.240Z,69.82
2019-01-20T00:50:28.387Z,69.82
2019-01-20T00:51:16.838Z,69.77
2019-01-20T00:52:05.849Z,69.48
2019-01-20T00:52:54.238Z,69.67
2019-01-20T01:00:28.827Z,70.39
2019-01-20T01:01:17.471Z,70.11
2019-01-20T01:02:05.516Z,70.2
2019-01-20T01:02:54.448Z,70.2
2019-01-20T01:03:42.735Z,70.62
2019-01-20T01:04:31.251Z,69.86
2019-01-20T01:05:20.034Z,69.86
2019-01-20T01:06:08.872Z,69.67
2019-01-20T01:06:57.121Z,69.01
2019-01-20T01:07:45.662Z,68.35
2019-01-20T01:08:34.510Z,69.17
2019-01-20T01:09:23.071Z,69.48
2019-01-20T01:10:11.547Z,68.88
2019-01-20T01:11:00.480Z,68.98
2019-01-20T01:11:48.808Z,69.07
2019-01-20T01:12:37.581Z,70.05
2019-01-20T01:13:25.860Z,69.92
2019-01-20T01:14:14.541Z,69.26
2019-01-20T01:16:45.151Z,68.98
2019-01-20T01:20:11.759Z,70.58
2019-01-20T01:21:00.445Z,69.86
2019-01-20T01:21:48.643Z,68.63
2019-01-20T01:22:37.189Z,68.15
2019-01-20T01:25:49.938Z,69.2
2019-01-20T01:26:38.371Z,69.01
2019-01-20T01:27:27.056Z,69.01
2019-01-20T01:32:38.928Z,68.15
2019-01-20T01:37:41.434Z,68.73
2019-01-20T01:38:29.940Z,68.35
2019-01-20T01:39:18.422Z,68.63
2019-01-20T01:43:39.085Z,68.88
2019-01-20T01:44:26.391Z,68.98
2019-01-20T01:45:26.111Z,68.5
2019-01-20T01:46:20.327Z,68.69
2019-01-20T02:00:45.615Z,70.01
2019-01-20T02:01:38.298Z,70.2
2019-01-20T02:02:26.646Z,69.64
2019-01-20T02:03:17.914Z,69.07
2019-01-20T02:10:38.481Z,68.79
2019-01-20T02:11:26.919Z,68.5
2019-01-20T02:12:15.440Z,67.36
2019-01-20T02:13:03.638Z,67.96
2019-01-20T02:13:52.578Z,67.3
2019-01-20T02:14:41.375Z,67.21
2019-01-20T02:15:29.801Z,67.77
2019-01-20T02:16:18.632Z,67.77
2019-01-20T02:17:06.863Z,67.58
2019-01-20T02:17:55.242Z,67.02
2019-01-20T02:18:43.955Z,66.26
2019-01-20T02:19:32.617Z,66.26
2019-01-20T02:20:21.038Z,66.83
2019-01-20T02:21:09.589Z,65.97
2019-01-20T02:21:58.094Z,65.78
2019-01-20T02:22:46.655Z,65.41
2019-01-20T02:23:35.031Z,65.88
2019-01-20T02:24:23.832Z,66.35
2019-01-20T02:25:12.418Z,66.93
2019-01-20T02:26:00.976Z,66.35
2019-01-20T02:26:49.548Z,66.45
2019-01-20T02:27:38.426Z,64.74
2019-01-20T02:28:28.832Z,64.36
2019-01-20T02:29:17.195Z,63.98
2019-01-20T02:30:06.214Z,64.93
2019-01-20T02:30:54.811Z,64.36
2019-01-20T02:31:45.269Z,64.52
2019-01-20T02:32:33.588Z,64.14
2019-01-20T02:33:21.807Z,64.33
2019-01-20T02:34:10.464Z,64.9
2019-01-20T02:34:59.194Z,65
2019-01-20T02:35:47.527Z,65.81
2019-01-20T02:36:36.171Z,66.19
2019-01-20T02:37:24.587Z,67.61
2019-01-20T02:38:13.278Z,68.24
2019-01-20T02:39:01.873Z,68.24
2019-01-20T02:39:50.594Z,68.9
2019-01-20T02:40:39.376Z,70.14
2019-01-20T02:41:28.388Z,71.55
2019-01-20T02:42:16.572Z,71.55
2019-01-20T02:43:05.070Z,71.74
2019-01-20T02:43:53.518Z,71.74
2019-01-20T02:44:42.323Z,71.74
2019-01-20T02:45:31.264Z,72.53
2019-01-20T02:46:19.311Z,71.36
2019-01-20T02:47:08.213Z,70.51
2019-01-20T02:47:56.335Z,72.12
2019-01-20T02:48:44.721Z,72.69
2019-01-20T02:49:33.476Z,71.74
2019-01-20T02:50:22.013Z,72.12
2019-01-20T02:51:10.501Z,71.46
2019-01-20T02:51:59.072Z,70.32
2019-01-20T02:52:47.755Z,69.28
2019-01-20T02:53:36.218Z,69.76
2019-01-20T02:54:24.896Z,71.17
2019-01-20T02:55:13.321Z,71.27
2019-01-20T02:56:02.015Z,71.08
2019-01-20T02:56:50.813Z,70.95
2019-01-20T02:57:39.381Z,71.14
2019-01-20T02:58:27.791Z,71.23
2019-01-20T02:59:16.626Z,71.8
2019-01-20T03:00:04.932Z,72.28
2019-01-20T03:00:53.561Z,72.18
2019-01-20T03:01:42.183Z,72.66
2019-01-20T03:02:30.854Z,74.83
2019-01-20T03:03:19.347Z,76.91
2019-01-20T03:04:07.612Z,77.48
2019-01-20T03:04:56.377Z,77.58
2019-01-20T03:05:44.553Z,76.29
2019-01-20T03:06:33.823Z,76.29
2019-01-20T03:07:22.383Z,76.19
2019-01-20T03:08:10.571Z,74.87
2019-01-20T03:08:59.094Z,73.92
2019-01-20T03:09:47.619Z,73.16
2019-01-20T03:10:36.079Z,73.45
2019-01-20T03:11:25.193Z,73.11
2019-01-20T03:12:13.793Z,73.2
2019-01-20T03:13:01.959Z,72.53
2019-01-20T03:13:50.495Z,72.34
2019-01-20T03:14:39.372Z,71.69
2019-01-20T03:15:29.330Z,71.12
2019-01-20T03:16:16.505Z,71.44
2019-01-20T03:17:04.883Z,71.15
2019-01-20T03:17:54.005Z,70.87
2019-01-20T03:18:42.284Z,70.3
2019-01-20T03:19:30.527Z,70.3
2019-01-20T03:20:19.767Z,70.68
2019-01-20T03:22:41.665Z,70.39
2019-01-20T03:23:30.205Z,69.54
2019-01-20T03:24:18.753Z,70.58
2019-01-20T03:25:07.746Z,71.44
2019-01-20T03:25:56.011Z,71.06
2019-01-20T03:26:44.956Z,71.06
2019-01-20T03:27:33.061Z,71.06
2019-01-20T03:28:22.591Z,71.53
2019-01-20T03:29:11.491Z,71.62
2019-01-20T03:29:59.752Z,70.58
2019-01-20T03:30:48.682Z,70.78
2019-01-20T03:31:37.043Z,71.44
2019-01-20T03:32:25.200Z,71.34
2019-01-20T03:33:14.236Z,71.34
2019-01-20T03:34:02.713Z,71.34
2019-01-20T03:34:51.232Z,72
2019-01-20T03:35:39.997Z,72.16
2019-01-20T03:36:28.888Z,71.78
2019-01-20T03:37:17.225Z,70.17
2019-01-20T03:38:05.706Z,68.46
2019-01-20T03:38:54.512Z,70.36
2019-01-20T03:39:43.017Z,71.69
2019-01-20T03:40:31.912Z,71.31
2019-01-20T03:41:19.899Z,69.32
2019-01-20T03:42:11.972Z,70.64
2019-01-20T03:42:57.271Z,72.06
2019-01-20T03:43:46.180Z,71.69
2019-01-20T03:44:35.068Z,71.25
2019-01-20T03:45:23.293Z,71.62
2019-01-20T03:46:11.796Z,70.97
2019-01-20T03:47:00.584Z,71.15
2019-01-20T03:47:49.058Z,69.82
2019-01-20T03:48:37.534Z,70.3
2019-01-20T03:49:26.264Z,69.17
2019-01-20T03:50:15.130Z,69.32
2019-01-20T03:51:03.631Z,70.07
2019-01-20T03:51:52.477Z,69.13
2019-01-20T03:52:40.449Z,69.79
2019-01-20T03:53:29.196Z,70.36
2019-01-20T03:54:17.765Z,70.39
2019-01-20T03:55:06.504Z,71.15
2019-01-20T03:55:55.104Z,71.15
2019-01-20T03:56:43.468Z,69.64
2019-01-20T04:10:51.817Z,70.98
2019-01-20T04:11:40.420Z,71.36
2019-01-20T04:12:29.023Z,70.42
2019-01-20T04:13:17.528Z,70.23
2019-01-20T04:14:06.273Z,70.32
2019-01-20T04:14:55.187Z,71.84
2019-01-20T04:15:43.578Z,72.66
2019-01-20T04:16:32.084Z,72.85
2019-01-20T04:17:20.875Z,72.85
2019-01-20T04:18:10.145Z,72.94
2019-01-20T04:18:58.413Z,73.03
2019-01-20T04:19:47.071Z,74.17
2019-01-20T04:20:35.644Z,74.17
2019-01-20T04:21:24.824Z,73.03
2019-01-20T04:22:12.994Z,72.18
2019-01-20T04:23:01.974Z,72.66
2019-01-20T04:23:50.585Z,73.88
2019-01-20T04:24:39.281Z,74.26
2019-01-20T04:25:28.227Z,72.69
2019-01-20T04:26:16.426Z,72.66
2019-01-20T04:27:05.132Z,72.69
2019-01-20T04:27:53.890Z,73.16
2019-01-20T04:28:42.688Z,73.45
2019-01-20T05:54:36.155Z,69.03
2019-01-20T05:58:33.164Z,68.62
2019-01-20T05:59:17.018Z,68.9
2019-01-20T06:01:40.131Z,70.7
2019-01-20T06:07:19.010Z,67.52
2019-01-20T06:09:48.291Z,68.56
2019-01-20T06:13:56.187Z,67.9
2019-01-20T06:14:44.080Z,66.95
2019-01-20T06:17:16.434Z,69.7
2019-01-20T06:17:58.900Z,69.22
2019-01-20T06:18:40.830Z,68.37
2019-01-20T06:19:22.837Z,69.13
2019-01-20T06:20:04.819Z,69.03
2019-01-20T06:20:55.824Z,69.41
2019-01-20T06:21:36.230Z,69.7
2019-01-20T06:22:18.240Z,68.94
2019-01-20T06:22:58.660Z,68.94
2019-01-20T06:23:39.051Z,68.94
2019-01-20T06:24:19.467Z,68.84
2019-01-20T06:24:59.916Z,68.94
2019-01-20T06:25:49.575Z,70.36
2019-01-20T06:26:30.923Z,70.45
2019-01-20T06:27:12.278Z,69.89
2019-01-20T06:27:53.632Z,69.13
2019-01-20T06:28:34.029Z,69.32
2019-01-20T06:32:35.393Z,68.84
2019-01-20T06:33:24.133Z,67.61
2019-01-20T06:35:15.751Z,69.13
2019-01-20T06:36:19.668Z,68.84
2019-01-20T06:36:58.521Z,68.18
2019-01-20T06:37:38.953Z,68.65
2019-01-20T06:38:20.309Z,68.46
2019-01-20T06:41:22.355Z,68.84
2019-01-20T06:42:05.074Z,69.03
2019-01-20T06:43:01.187Z,67.99
2019-01-20T06:43:32.345Z,68.65
2019-01-20T06:44:12.713Z,68.94
2019-01-20T06:44:53.109Z,68.75
2019-01-20T06:45:34.420Z,69.03
2019-01-20T06:46:14.831Z,68.84
2019-01-20T06:46:56.971Z,68.75
2019-01-20T06:47:41.704Z,68.94
2019-01-20T06:48:22.091Z,69.22
2019-01-20T06:49:02.488Z,68.84
2019-01-20T06:49:43.828Z,68.27
2019-01-20T06:50:24.247Z,67.43
2019-01-20T06:51:06.190Z,67.99
2019-01-20T06:51:47.521Z,68.27
2019-01-20T06:52:27.937Z,67.9
2019-01-20T06:53:08.345Z,67.52
2019-01-20T06:53:48.771Z,67.8
2019-01-20T06:54:30.772Z,67.8
2019-01-20T06:55:12.917Z,67.33
2019-01-20T06:55:53.378Z,67.61
2019-01-20T06:56:34.632Z,68.27
2019-01-20T06:59:48.676Z,68.94
2019-01-20T07:00:32.721Z,68.46
2019-01-20T07:01:13.130Z,67.99
2019-01-20T07:01:54.299Z,67.9
2019-01-20T07:02:34.698Z,68.18
2019-01-20T07:03:16.026Z,67.99
2019-01-20T07:03:57.397Z,68.46
2019-01-20T07:04:37.847Z,67.33
2019-01-20T07:05:18.226Z,67.43
2019-01-20T07:05:58.605Z,68.18
2019-01-20T07:06:40.923Z,67.43
2019-01-20T07:07:21.320Z,67.61
2019-01-20T07:08:01.721Z,68.37
2019-01-20T07:08:54.793Z,67.33
2019-01-20T07:09:51.139Z,67.99
2019-01-20T07:10:31.539Z,67.71
2019-01-20T07:11:11.992Z,68.75
2019-01-20T07:11:52.358Z,68.46
2019-01-20T07:12:37.479Z,68.18
2019-01-20T07:13:17.927Z,68.46
2019-01-20T07:14:00.050Z,68.37
2019-01-20T07:14:58.019Z,67.49
2019-01-20T07:15:38.448Z,68.15
2019-01-20T07:16:18.958Z,68.9
2019-01-20T07:16:59.315Z,69.85
2019-01-20T07:17:39.750Z,70.51
2019-01-20T07:18:20.217Z,71.12
2019-01-20T07:19:00.588Z,70.26
2019-01-20T07:19:42.545Z,69.13
2019-01-20T07:20:24.850Z,69.89
2019-01-20T07:21:06.851Z,68.33
2019-01-20T07:21:47.242Z,69.19
2019-01-20T07:22:27.645Z,69.95
2019-01-20T07:23:08.983Z,69.66
2019-01-20T07:25:11.574Z,69.09
2019-01-20T07:25:58.484Z,69.6
2019-01-20T07:26:37.333Z,68.9
2019-01-20T07:27:17.798Z,68.56
2019-01-20T07:27:58.213Z,68.75
2019-01-20T07:28:39.245Z,68.18
2019-01-20T07:29:21.231Z,68.65
2019-01-20T07:30:01.695Z,68.94
2019-01-20T07:30:42.081Z,68.75
2019-01-20T07:31:24.436Z,67.43
2019-01-20T07:32:04.857Z,68.18
2019-01-20T07:32:45.235Z,67.9
2019-01-20T07:33:25.632Z,68.27
2019-01-20T07:35:25.731Z,67.99
2019-01-20T07:36:05.754Z,66.95
2019-01-20T07:36:46.142Z,68.18
2019-01-20T07:37:28.306Z,67.86
2019-01-20T07:38:08.745Z,68.43
2019-01-20T07:38:49.160Z,68.37
2019-01-20T07:39:29.577Z,68.65
2019-01-20T07:40:11.588Z,68.46
2019-01-20T07:40:51.989Z,67.43
2019-01-20T07:41:32.386Z,66.95
2019-01-20T07:42:12.790Z,66.28
2019-01-20T07:42:53.196Z,65.53
2019-01-20T07:43:33.623Z,66.09
2019-01-20T07:44:15.927Z,66.19
2019-01-20T07:44:56.297Z,66.09
2019-01-20T07:45:36.698Z,65.63
2019-01-20T07:46:17.100Z,66.67
2019-01-20T07:46:57.512Z,66.09
2019-01-20T07:47:37.916Z,67.14
2019-01-20T07:48:18.333Z,66.38
2019-01-20T07:48:58.740Z,64.58
2019-01-20T07:49:39.161Z,64.49
2019-01-20T07:50:19.549Z,66.28
2019-01-20T07:50:59.951Z,66.86
2019-01-20T07:51:40.338Z,66.03
2019-01-20T07:52:20.730Z,65.91
2019-01-20T07:53:01.145Z,66.32
2019-01-20T07:53:41.562Z,66.32
2019-01-20T07:54:22.872Z,66.51
2019-01-20T07:55:03.272Z,64.9
2019-01-20T07:57:23.293Z,63.29
2019-01-20T07:58:06.768Z,62.75
2019-01-20T07:58:50.882Z,62.66
2019-01-20T07:59:31.336Z,62.47
2019-01-20T08:00:11.702Z,61.99
2019-01-20T08:00:52.090Z,61.99
2019-01-20T08:01:32.519Z,61.99
2019-01-20T08:02:12.913Z,61.43
2019-01-20T08:02:53.308Z,61.24
2019-01-20T08:03:34.256Z,60.38
2019-01-20T08:04:14.674Z,59.72
2019-01-20T08:04:55.077Z,59.94
2019-01-20T08:05:35.507Z,59.66
2019-01-20T08:07:52.828Z,59.37
2019-01-20T08:08:41.380Z,58.8
2019-01-20T08:09:29.704Z,58.45
2019-01-20T08:10:18.367Z,57.03
2019-01-20T08:11:07.428Z,55.89
2019-01-20T08:11:55.880Z,55.6
2019-01-20T08:14:16.297Z,55.32
2019-01-20T08:14:58.873Z,55.32
2019-01-20T08:15:39.284Z,55.6
2019-01-20T08:16:19.691Z,56.08
2019-01-20T08:17:00.147Z,55.51
2019-01-20T08:17:40.549Z,55.89
2019-01-20T08:18:20.950Z,56.49
2019-01-20T08:19:01.392Z,56.55
2019-01-20T08:19:41.805Z,56.46
2019-01-20T08:20:22.289Z,56.17
2019-01-20T08:21:02.663Z,55.41
2019-01-20T08:21:43.078Z,55.13
2019-01-20T08:23:41.069Z,55.6
2019-01-20T08:24:26.995Z,55.51
2019-01-20T08:26:36.133Z,55.82
2019-01-20T08:27:23.361Z,56.08
2019-01-20T08:28:04.758Z,54.75
2019-01-20T08:28:45.192Z,54.97
2019-01-20T08:29:25.610Z,54.58
2019-01-20T08:30:06.012Z,54.02
2019-01-20T08:30:46.464Z,54.39
2019-01-20T08:31:26.859Z,54.18
2019-01-20T08:32:08.979Z,54.66
2019-01-20T08:32:49.399Z,55.98
2019-01-20T08:33:29.862Z,55.91
2019-01-20T08:35:30.104Z,53.54
2019-01-20T08:38:25.235Z,51.74
2019-01-20T08:39:20.385Z,52.69
2019-01-20T08:43:31.659Z,53.33
2019-01-20T08:44:25.079Z,54.97
2019-01-20T09:11:26.840Z,45.56
2019-01-20T09:12:15.375Z,45.95
2019-01-20T09:29:10.874Z,44.52
2019-01-20T09:33:02.331Z,42.83
2019-01-20T09:47:48.320Z,45.14
2019-01-20T09:48:30.899Z,45.14
2019-01-20T09:49:13.072Z,46.09
2019-01-20T09:49:55.256Z,46.64
2019-01-20T09:50:36.600Z,46.64
2019-01-20T09:51:18.767Z,48.06
2019-01-20T09:52:00.397Z,49.49
2019-01-20T09:53:02.936Z,50.18
2019-01-20T09:59:24.682Z,44.76
2019-01-20T10:01:08.438Z,46.83
2019-01-20T10:01:50.635Z,46.85
2019-01-20T10:04:41.097Z,47.8
2019-01-20T10:05:25.777Z,45.9
2019-01-20T10:06:11.718Z,47.52
2019-01-20T10:07:05.861Z,47.71
2019-01-20T10:07:57.758Z,46.85
2019-01-20T10:08:38.992Z,46.85
2019-01-20T10:09:22.973Z,47.13
2019-01-20T10:10:07.211Z,46.37
2019-01-20T10:10:55.417Z,46.54
2019-01-20T10:11:50.092Z,48.35
2019-01-20T10:12:38.785Z,49.77
2019-01-20T10:13:20.265Z,49.39
2019-01-20T10:14:01.095Z,48.16
2019-01-20T10:15:33.345Z,46.45
2019-01-20T10:26:05.740Z,42.9
2019-01-20T10:28:36.908Z,43.76
2019-01-20T10:29:25.675Z,43.59
2019-01-20T11:10:21.242Z,39.92
2019-01-20T11:12:57.348Z,38.7
2019-01-20T11:16:26.364Z,39.7
2019-01-20T11:20:14.978Z,39.14
2019-01-20T11:21:08.431Z,39.23
2019-01-20T11:41:43.564Z,36.9
2019-01-20T11:51:23.533Z,38.51
2019-01-20T11:53:32.270Z,37.17
2019-01-20T11:55:13.921Z,38.09
2019-01-20T12:06:41.999Z,43.87
2019-01-20T12:07:30.307Z,43.21
2019-01-20T12:09:47.827Z,41.11
2019-01-20T12:11:43.691Z,40.06
2019-01-20T12:13:39.776Z,42.58
2019-01-20T12:14:27.909Z,41.36
2019-01-20T12:22:02.287Z,40.03
2019-01-20T12:22:51.118Z,40.03
2019-01-20T12:23:39.450Z,39.29
2019-01-20T12:24:27.777Z,39
2019-01-20T12:25:16.547Z,38.24
2019-01-20T12:31:12.788Z,38.71
2019-01-20T12:32:02.394Z,38.89
2019-01-20T12:35:54.545Z,38.34
2019-01-20T12:38:01.597Z,38.43
2019-01-20T12:40:47.028Z,37.12
2019-01-20T12:41:35.963Z,36.83
2019-01-20T12:42:24.208Z,36.71
2019-01-20T12:43:12.635Z,37.12
2019-01-20T12:44:01.144Z,37.4
2019-01-20T12:44:50.176Z,37.3
2019-01-20T12:47:11.738Z,38.26
2019-01-20T12:48:00.460Z,38.17
2019-01-20T12:48:51.231Z,37.88
2019-01-20T12:49:39.770Z,37.3
2019-01-20T12:50:28.694Z,37.21
2019-01-20T12:51:17.348Z,37.02
2019-01-20T12:52:05.643Z,37.68
2019-01-20T12:56:04.124Z,39.25
2019-01-20T12:57:52.064Z,40.7
2019-01-20T12:58:57.847Z,40.7
2019-01-20T12:59:55.845Z,39.75
2019-01-20T13:00:39.166Z,39.27
2019-01-20T13:01:20.675Z,39.1
2019-01-20T13:02:03.577Z,39
2019-01-20T13:02:48.088Z,38.15
2019-01-20T13:05:09.118Z,39
2019-01-20T13:05:57.409Z,38.71
2019-01-20T13:06:45.973Z,38.34
2019-01-20T13:07:34.581Z,38.15
2019-01-20T13:08:23.062Z,38.24
2019-01-20T13:09:12.793Z,38.24
2019-01-20T13:17:45.755Z,39.53
2019-01-20T13:18:34.273Z,39.73
2019-01-20T13:19:22.385Z,40.58
2019-01-20T13:20:11.065Z,40.89
2019-01-20T13:20:59.747Z,40.8
2019-01-20T13:25:31.010Z,42.94
2019-01-20T13:41:41.151Z,48.56
2019-01-20T13:45:09.296Z,49.96
2019-01-20T13:47:10.557Z,49.51
2019-01-20T13:48:00.153Z,48.75
2019-01-20T14:11:37.012Z,52.43
2019-01-20T14:15:39.868Z,51.48
2019-01-20T14:16:28.274Z,50.93
2019-01-20T14:17:16.876Z,50.65
2019-01-20T14:19:30.602Z,49.04
2019-01-20T14:24:47.740Z,47.94
2019-01-20T14:43:55.928Z,53.35
2019-01-20T14:47:33.290Z,53.57
2019-01-20T14:49:16.807Z,51.39
2019-01-20T14:50:03.699Z,50.34
2019-01-20T14:50:44.091Z,49.96
2019-01-20T14:51:24.522Z,50.46
2019-01-20T14:52:06.543Z,49.29
2019-01-20T14:52:46.957Z,48.44
2019-01-20T14:53:27.362Z,49.89
2019-01-20T14:54:07.851Z,49.29
2019-01-20T14:54:48.240Z,50.08
2019-01-20T14:55:28.704Z,50.27
2019-01-20T14:56:09.748Z,49.79
2019-01-20T14:56:50.198Z,49.32
2019-01-20T14:57:30.562Z,49.91
2019-01-20T14:58:11.114Z,48.77
2019-01-20T14:58:51.496Z,48.11
2019-01-20T14:59:31.887Z,48.68
2019-01-20T15:00:12.335Z,48.3
2019-01-20T15:00:52.805Z,48.01
2019-01-20T15:01:35.106Z,47.63
2019-01-20T15:02:16.539Z,47.54
2019-01-20T15:02:57.735Z,46.2
2019-01-20T15:03:41.059Z,46.01
2019-01-20T15:04:21.449Z,45.73
2019-01-20T15:05:01.825Z,46.49
2019-01-20T15:05:42.222Z,47.82
2019-01-20T15:06:23.051Z,47.92
2019-01-20T15:07:06.310Z,47.06
2019-01-20T15:07:47.451Z,47.09
2019-01-20T15:08:27.854Z,46.23
2019-01-20T15:09:08.222Z,45.18
2019-01-20T15:09:48.575Z,44.9
2019-01-20T15:10:29.021Z,44.04
2019-01-20T15:11:09.478Z,43.85
2019-01-20T15:11:49.872Z,43.47
2019-01-20T15:12:30.379Z,43.85
2019-01-20T15:13:10.668Z,44.04
2019-01-20T15:13:51.156Z,43.66
2019-01-20T15:14:33.503Z,43.47
2019-01-20T15:15:13.948Z,42.9
2019-01-20T15:15:54.394Z,43.66
2019-01-20T15:16:36.521Z,43.95
2019-01-20T15:17:16.916Z,44.9
2019-01-20T15:17:59.457Z,45
2019-01-20T15:18:41.616Z,45.28
2019-01-20T15:19:22.017Z,45
2019-01-20T15:20:02.450Z,45
2019-01-20T15:20:42.942Z,44.71
2019-01-20T15:21:23.387Z,44.71
2019-01-20T15:22:03.870Z,44.71
2019-01-20T15:22:44.241Z,44.9
2019-01-20T15:23:24.677Z,45.28
2019-01-20T15:24:04.996Z,44.92
2019-01-20T15:24:45.388Z,45.09
2019-01-20T15:25:28.589Z,46.15
2019-01-20T15:26:10.792Z,45.59
2019-01-20T15:28:13.018Z,44.06
2019-01-20T15:29:01.536Z,44.54
2019-01-20T15:29:49.695Z,44.16
2019-01-20T15:30:38.500Z,43.97
2019-01-20T15:31:27.057Z,43.97
2019-01-20T15:32:16.164Z,44.16
2019-01-20T15:33:04.273Z,43.97
2019-01-20T15:33:52.837Z,44.06
2019-01-20T15:34:41.657Z,43.78
2019-01-20T15:35:30.453Z,43.97
2019-01-20T15:36:18.669Z,43.87
2019-01-20T15:37:07.312Z,43.66
2019-01-20T15:37:56.198Z,43.76
2019-01-20T15:38:44.417Z,44.13
2019-01-20T15:39:33.130Z,44.13
2019-01-20T15:40:22.036Z,44.42
2019-01-20T15:41:10.194Z,44.61
2019-01-20T15:41:59.119Z,45
2019-01-20T15:42:47.337Z,45.28
2019-01-20T15:43:36.562Z,45.75
2019-01-20T15:44:25.002Z,45.92
2019-01-20T15:45:16.414Z,46.49
2019-01-20T15:46:01.890Z,46.3
2019-01-20T15:46:52.311Z,46.78
2019-01-20T15:47:40.671Z,47.16
2019-01-20T15:48:29.695Z,47.61
2019-01-20T15:49:17.915Z,47.99
2019-01-20T15:50:06.660Z,48.27
2019-01-20T15:50:57.890Z,48.85
2019-01-20T15:51:46.438Z,49.49
2019-01-20T15:52:35.527Z,49.96
2019-01-20T15:59:21.514Z,55.32
2019-01-20T16:00:10.354Z,55.41
2019-01-20T16:00:58.773Z,55.41
2019-01-20T16:01:47.499Z,55.89
2019-01-20T16:02:35.907Z,57.12
2019-01-20T16:03:24.555Z,58.04
2019-01-20T16:09:09.352Z,60.5
2019-01-20T16:09:57.599Z,60.98
2019-01-20T16:10:46.170Z,60.98
2019-01-20T16:11:34.867Z,60.89
2019-01-20T16:12:23.155Z,60.98
2019-01-20T16:13:12.315Z,60.79
2019-01-20T16:14:00.488Z,60.89
2019-01-20T16:14:50.114Z,60.79
2019-01-20T16:15:38.446Z,60.79
2019-01-20T16:16:27.382Z,60.79
2019-01-20T16:17:15.554Z,61.36
2019-01-20T16:18:04.387Z,61.46
2019-01-20T16:18:53.389Z,61.93
2019-01-20T16:19:41.507Z,61.55
2019-01-20T16:20:30.180Z,61.46
2019-01-20T16:21:18.901Z,61.65
2019-01-20T16:22:07.767Z,60.7
2019-01-20T16:22:55.937Z,61.36
2019-01-20T16:23:44.669Z,61.83
2019-01-20T16:24:33.375Z,61.55
2019-01-20T16:25:22.043Z,61.83
2019-01-20T16:26:10.606Z,61.83
2019-01-20T16:27:00.971Z,61.27
2019-01-20T16:27:47.857Z,61.93
2019-01-20T16:28:36.780Z,61.55
2019-01-20T16:29:25.145Z,61.46
2019-01-20T16:30:14.002Z,61.17
2019-01-20T16:31:02.635Z,61.36
2019-01-20T16:31:51.402Z,61.46
2019-01-20T17:13:59.561Z,68.31
2019-01-20T17:14:48.414Z,68.46
2019-01-20T17:15:39.587Z,69.89
2019-01-20T17:16:25.132Z,70.3
2019-01-20T17:17:13.750Z,70.2
2019-01-20T17:18:02.741Z,69.64
2019-01-20T17:18:50.963Z,69.07
2019-01-20T17:19:40.026Z,68.98
2019-01-20T17:20:28.163Z,67.93
2019-01-20T17:21:16.802Z,68.5
2019-01-20T17:22:05.102Z,68.21
2019-01-20T17:22:54.011Z,68.88
2019-01-20T17:23:42.565Z,67.83
2019-01-20T17:24:31.103Z,66.6
2019-01-20T17:25:19.704Z,66.32
2019-01-20T17:26:08.215Z,66.22
2019-01-20T17:26:57.048Z,66.32
2019-01-20T17:27:45.455Z,67.83
2019-01-20T17:28:34.488Z,69.17
2019-01-20T17:29:22.481Z,69.07
2019-01-20T17:30:11.271Z,70.01
2019-01-20T17:30:59.880Z,69.82
2019-01-20T17:31:48.478Z,69.26
2019-01-20T17:32:37.304Z,68.79
2019-01-20T17:33:25.542Z,68.31
2019-01-20T17:34:14.226Z,68.4
2019-01-20T17:35:02.794Z,68.4
2019-01-20T17:35:51.488Z,68.5
2019-01-20T17:36:39.929Z,68.5
2019-01-20T17:37:29.041Z,68.4
2019-01-20T17:38:17.115Z,68.02
2019-01-20T17:39:11.862Z,68.02
2019-01-20T17:39:54.233Z,67.74
2019-01-20T17:40:42.703Z,67.55
2019-01-20T17:41:31.752Z,67.93
2019-01-20T17:42:19.844Z,68.21
2019-01-20T17:43:08.383Z,67.55
2019-01-20T17:43:57.486Z,68.12
2019-01-20T17:44:48.509Z,67.74
2019-01-20T17:45:36.966Z,68.21
2019-01-20T17:46:25.900Z,68.79
2019-01-20T17:47:14.520Z,68.5
2019-01-20T17:48:02.637Z,68.12
2019-01-20T17:48:51.214Z,67.36
2019-01-20T17:49:39.814Z,67.08
2019-01-20T17:50:28.251Z,66.8
2019-01-20T17:51:16.755Z,67.4
2019-01-20T17:52:05.473Z,67.58
2019-01-20T17:52:55.424Z,67.02
2019-01-20T17:53:44.203Z,66.16
2019-01-20T17:54:32.818Z,65.69
2019-01-20T17:55:21.180Z,65.31
2019-01-20T17:56:10.010Z,65.09
2019-01-20T17:56:58.550Z,64.42
2019-01-20T17:57:47.407Z,64.42
2019-01-20T17:58:35.674Z,64.9
2019-01-20T17:59:24.406Z,66.41
2019-01-20T18:00:12.889Z,67.36
2019-01-20T18:01:01.602Z,68.02
2019-01-20T18:01:50.017Z,68.31
2019-01-20T18:02:38.512Z,68.79
2019-01-20T18:03:27.189Z,69.17
2019-01-20T18:04:15.767Z,69.17
2019-01-20T18:05:04.477Z,68.79
2019-01-20T18:05:53.006Z,68.4
2019-01-20T18:06:41.815Z,68.5
2019-01-20T18:07:30.234Z,69.07
2019-01-20T18:08:18.750Z,68.79
2019-01-20T18:09:07.542Z,69.07
2019-01-20T18:09:56.401Z,69.26
2019-01-20T18:10:44.540Z,69.45
2019-01-20T18:11:33.240Z,69.45
2019-01-20T18:12:21.772Z,69.07
2019-01-20T18:13:10.483Z,69.92
2019-01-20T18:13:58.807Z,69.54
2019-01-20T18:14:47.980Z,69.17
2019-01-20T18:15:36.230Z,69.17
2019-01-20T18:16:24.995Z,68.88
2019-01-20T18:17:13.220Z,68.98
2019-01-20T18:18:01.704Z,68.31
2019-01-20T18:18:50.561Z,68.12
2019-01-20T18:19:39.523Z,68.46
2019-01-20T18:20:27.974Z,69.13
2019-01-20T18:21:16.457Z,68.56
2019-01-20T18:22:05.412Z,69.6
2019-01-20T18:22:53.511Z,70.55
2019-01-20T18:23:42.128Z,71.59
2019-01-20T18:24:30.791Z,71.31
2019-01-20T18:25:19.307Z,70.45
2019-01-20T18:26:07.901Z,70.74
2019-01-20T18:26:56.382Z,70.55
2019-01-20T18:27:45.381Z,69.6
2019-01-20T18:28:33.748Z,69.89
2019-01-20T18:29:23.289Z,69.89
2019-01-20T18:30:11.011Z,69.7
2019-01-20T18:30:59.566Z,70.36
2019-01-20T18:31:48.457Z,69.98
2019-01-20T18:32:36.897Z,69.6
2019-01-20T18:33:25.144Z,69.22
2019-01-20T18:34:13.555Z,69.22
2019-01-20T18:35:02.181Z,69.13
2019-01-20T18:35:52.515Z,69.13
2019-01-20T18:36:40.873Z,68.94
2019-01-20T18:37:29.795Z,69.13
2019-01-20T18:38:18.109Z,69.85
2019-01-20T18:39:07.114Z,69.95
2019-01-20T18:39:55.264Z,70.04
2019-01-20T18:40:43.717Z,70.61
2019-01-20T18:41:32.564Z,71.17
2019-01-20T18:42:21.058Z,70.98
2019-01-20T18:43:09.491Z,71.65
2019-01-20T18:43:58.156Z,71.93
2019-01-20T18:44:46.820Z,72.41
2019-01-20T18:45:35.651Z,72.22
2019-01-20T18:46:24.506Z,72.88
2019-01-20T18:47:12.930Z,72.78
2019-01-20T18:48:01.283Z,72.78
2019-01-20T18:48:50.019Z,73.03
2019-01-20T18:49:38.772Z,73.45
2019-01-20T18:50:26.814Z,73.79
2019-01-20T18:51:15.503Z,73.79
2019-01-20T18:52:04.121Z,74.55
2019-01-20T18:52:52.654Z,74.64
2019-01-20T18:53:41.317Z,74.55
2019-01-20T18:54:30.453Z,75.21
2019-01-20T18:55:19.892Z,75.49
2019-01-20T18:56:07.384Z,76.15
2019-01-20T18:56:55.661Z,77.58
2019-01-20T18:57:44.583Z,78.33
2019-01-20T18:58:32.790Z,78.52
2019-01-20T18:59:21.587Z,78.33
2019-01-20T19:00:10.118Z,78.9
2019-01-20T19:00:58.740Z,78.85
2019-01-20T19:01:47.437Z,78.85
2019-01-20T19:02:36.107Z,78.75
2019-01-20T19:03:24.316Z,78.85
2019-01-20T19:04:13.535Z,78.37
2019-01-20T19:05:02.019Z,78.46
2019-01-20T19:05:50.604Z,77.8
2019-01-20T19:06:38.681Z,78.46
2019-01-20T19:07:27.303Z,78.37
2019-01-20T19:08:16.041Z,78.37
2019-01-20T19:09:04.900Z,77.8
2019-01-20T19:09:53.418Z,76.95
2019-01-20T19:10:41.694Z,77.23
2019-01-20T19:11:30.238Z,76.67
2019-01-20T19:12:18.672Z,77.04
2019-01-20T19:13:07.596Z,77.04
2019-01-20T19:13:55.976Z,76.95